createdAt,value
2022-10-01T00:01:14.463Z,6.20
2022-10-01T00:03:42.105Z,6.35
2022-10-01T00:06:20.801Z,5.82
2022-10-01T00:08:49.614Z,7.07
2022-10-01T00:11:26.185Z,6.00
2022-10-01T00:13:54.339Z,5.90
2022-10-01T00:16:26.196Z,6.65
2022-10-01T00:18:54.058Z,5.53
2022-10-01T00:21:23.372Z,5.47
2022-10-01T00:23:58.016Z,5.72
2022-10-01T00:26:27.512Z,6.22
2022-10-01T00:28:59.383Z,5.82
2022-10-01T00:31:26.585Z,9.40
2022-10-01T00:33:54.572Z,6.45
2022-10-01T00:36:21.368Z,5.75
2022-10-01T00:38:48.470Z,6.25
2022-10-01T00:41:16.223Z,7.35
2022-10-01T00:43:46.959Z,7.57
2022-10-01T00:46:18.431Z,5.88
2022-10-01T00:48:58.358Z,6.07
2022-10-01T00:51:27.354Z,6.55
2022-10-01T00:53:59.799Z,6.15
2022-10-01T00:56:26.988Z,6.32
2022-10-01T00:58:54.569Z,6.10
2022-10-01T01:01:21.254Z,6.10
2022-10-01T01:03:48.119Z,6.68
2022-10-01T01:06:14.715Z,7.85
2022-10-01T01:08:42.953Z,7.63
2022-10-01T01:11:19.712Z,8.07
2022-10-01T01:13:58.129Z,9.63
2022-10-01T01:16:34.087Z,7.70
2022-10-01T01:19:12.703Z,7.97
2022-10-01T01:21:48.548Z,7.43
2022-10-01T01:24:21.016Z,11.38
2022-10-01T01:27:00.087Z,7.97
2022-10-01T01:29:33.481Z,8.30
2022-10-01T01:32:03.224Z,6.38
2022-10-01T01:34:31.692Z,7.07
2022-10-01T01:37:02.424Z,6.18
2022-10-01T01:39:32.698Z,7.90
2022-10-01T01:42:03.736Z,6.75
2022-10-01T01:44:34.400Z,6.57
2022-10-01T01:47:02.002Z,6.97
2022-10-01T01:49:29.973Z,6.07
2022-10-01T01:52:03.240Z,8.90
2022-10-01T01:54:30.539Z,6.72
2022-10-01T01:56:58.435Z,6.88
2022-10-01T01:59:26.585Z,7.93
2022-10-01T02:01:53.256Z,7.00
2022-10-01T02:04:23.547Z,7.88
2022-10-01T02:07:27.796Z,6.85
2022-10-01T02:10:18.951Z,6.63
2022-10-01T02:13:07.572Z,6.43
2022-10-01T02:15:37.280Z,5.95
2022-10-01T02:18:13.815Z,8.02
2022-10-01T02:20:49.473Z,6.25
2022-10-01T02:23:29.520Z,7.97
2022-10-01T02:25:58.817Z,7.18
2022-10-01T02:28:25.549Z,7.60
2022-10-01T02:30:53.810Z,7.10
2022-10-01T02:33:30.632Z,7.93
2022-10-01T02:35:58.983Z,6.25
2022-10-01T02:38:26.558Z,6.40
2022-10-01T02:40:55.631Z,7.10
2022-10-01T02:43:31.565Z,10.32
2022-10-01T02:46:15.812Z,7.63
2022-10-01T02:48:42.793Z,6.80
2022-10-01T02:51:19.975Z,8.02
2022-10-01T02:53:49.711Z,7.53
2022-10-01T02:56:36.705Z,10.38
2022-10-01T02:59:03.459Z,7.18
2022-10-01T03:01:30.310Z,7.50
2022-10-01T03:03:57.036Z,7.78
2022-10-01T03:06:24.179Z,13.23
2022-10-01T03:08:51.018Z,8.35
2022-10-01T03:11:17.679Z,7.97
2022-10-01T03:13:44.394Z,7.03
2022-10-01T03:16:10.972Z,7.13
2022-10-01T03:18:37.621Z,8.00
2022-10-01T03:21:04.411Z,7.35
2022-10-01T03:23:30.943Z,8.35
2022-10-01T03:25:57.556Z,6.60
2022-10-01T03:28:24.231Z,6.82
2022-10-01T03:30:50.834Z,7.38
2022-10-01T03:33:17.394Z,7.35
2022-10-01T03:35:44.020Z,6.65
2022-10-01T03:38:10.605Z,7.25
2022-10-01T03:40:39.176Z,7.40
2022-10-01T03:43:05.791Z,9.10
2022-10-01T03:45:32.379Z,6.90
2022-10-01T03:47:58.940Z,7.32
2022-10-01T03:50:25.611Z,7.60
2022-10-01T03:52:52.234Z,7.97
2022-10-01T03:55:19.452Z,8.48
2022-10-01T03:57:46.226Z,7.93
2022-10-01T04:00:14.158Z,6.95
2022-10-01T04:02:40.889Z,9.63
2022-10-01T04:05:07.958Z,7.18
2022-10-01T04:07:34.579Z,8.38
2022-10-01T04:10:01.252Z,6.85
2022-10-01T04:12:28.497Z,9.07
2022-10-01T04:14:55.035Z,11.63
2022-10-01T04:17:22.278Z,7.32
2022-10-01T04:19:48.947Z,8.93
2022-10-01T04:22:15.445Z,9.27
2022-10-01T04:24:42.004Z,7.03
2022-10-01T04:27:09.559Z,6.40
2022-10-01T04:29:40.081Z,7.47
2022-10-01T04:32:07.226Z,7.07
2022-10-01T04:34:52.559Z,6.30
2022-10-01T04:37:20.400Z,7.47
2022-10-01T04:39:47.044Z,7.75
2022-10-01T04:42:13.972Z,7.47
2022-10-01T04:44:40.711Z,6.53
2022-10-01T04:47:08.333Z,7.25
2022-10-01T04:49:35.186Z,7.30
2022-10-01T04:52:20.184Z,6.85
2022-10-01T04:54:47.366Z,10.82
2022-10-01T04:57:14.001Z,5.95
2022-10-01T04:59:40.584Z,7.07
2022-10-01T05:02:07.172Z,6.40
2022-10-01T05:04:33.879Z,6.85
2022-10-01T05:07:00.430Z,8.93
2022-10-01T05:09:27.100Z,6.45
2022-10-01T05:11:53.718Z,6.13
2022-10-01T05:14:21.309Z,5.82
2022-10-01T05:16:48.122Z,11.63
2022-10-01T05:19:14.833Z,8.82
2022-10-01T05:21:41.696Z,6.07
2022-10-01T05:24:08.549Z,5.88
2022-10-01T05:26:37.317Z,8.10
2022-10-01T05:29:03.823Z,6.18
2022-10-01T05:31:30.721Z,6.85
2022-10-01T05:33:57.426Z,6.95
2022-10-01T05:36:23.978Z,6.75
2022-10-01T05:38:52.553Z,6.35
2022-10-01T05:41:19.397Z,6.43
2022-10-01T05:43:48.611Z,5.60
2022-10-01T05:46:15.314Z,5.72
2022-10-01T05:48:41.968Z,8.07
2022-10-01T05:51:08.645Z,8.65
2022-10-01T05:53:39.642Z,5.40
2022-10-01T05:56:07.215Z,5.80
2022-10-01T05:58:34.353Z,7.88
2022-10-01T06:01:01.094Z,5.13
2022-10-01T06:03:29.067Z,5.80
2022-10-01T06:05:56.349Z,5.75
2022-10-01T06:08:23.196Z,6.13
2022-10-01T06:10:49.905Z,5.72
2022-10-01T06:13:19.332Z,5.20
2022-10-01T06:15:46.465Z,6.28
2022-10-01T06:18:14.640Z,7.15
2022-10-01T06:20:41.354Z,4.90
2022-10-01T06:23:12.834Z,4.97
2022-10-01T06:25:40.788Z,5.18
2022-10-01T06:28:09.189Z,5.13
2022-10-01T06:30:38.074Z,5.07
2022-10-01T06:33:13.426Z,5.38
2022-10-01T06:35:42.945Z,5.38
2022-10-01T06:38:10.724Z,5.35
2022-10-01T06:40:39.392Z,6.45
2022-10-01T06:43:07.983Z,5.45
2022-10-01T06:45:39.456Z,6.88
2022-10-01T06:48:06.534Z,5.05
2022-10-01T06:50:34.612Z,5.32
2022-10-01T06:53:02.196Z,5.47
2022-10-01T06:55:31.303Z,5.10
2022-10-01T06:58:02.618Z,4.13
2022-10-01T07:00:31.766Z,5.47
2022-10-01T07:02:58.735Z,4.50
2022-10-01T07:05:26.006Z,4.63
2022-10-01T07:07:52.752Z,6.10
2022-10-01T07:10:21.045Z,4.93
2022-10-01T07:12:51.036Z,5.88
2022-10-01T07:15:20.495Z,7.57
2022-10-01T07:17:49.869Z,4.63
2022-10-01T07:20:18.016Z,5.47
2022-10-01T07:22:44.960Z,5.40
2022-10-01T07:25:11.809Z,5.38
2022-10-01T07:27:38.953Z,4.93
2022-10-01T07:30:06.757Z,5.13
2022-10-01T07:32:35.389Z,5.10
2022-10-01T07:35:02.340Z,4.53
2022-10-01T07:37:28.923Z,6.55
2022-10-01T07:39:55.524Z,4.95
2022-10-01T07:42:22.390Z,5.60
2022-10-01T07:44:49.057Z,8.23
2022-10-01T07:47:15.657Z,5.25
2022-10-01T07:49:42.299Z,5.35
2022-10-01T07:52:13.128Z,5.25
2022-10-01T07:54:40.177Z,4.88
2022-10-01T07:57:06.770Z,7.07
2022-10-01T07:59:33.725Z,6.05
2022-10-01T08:02:01.153Z,7.90
2022-10-01T08:04:46.326Z,4.68
2022-10-01T08:07:12.887Z,10.38
2022-10-01T08:09:39.961Z,4.25
2022-10-01T08:12:06.702Z,5.53
2022-10-01T08:14:33.445Z,6.63
2022-10-01T08:17:00.166Z,5.05
2022-10-01T08:19:27.075Z,4.75
2022-10-01T08:21:53.660Z,4.72
2022-10-01T08:24:20.366Z,7.22
2022-10-01T08:26:52.544Z,3.95
2022-10-01T08:29:19.114Z,5.88
2022-10-01T08:31:45.802Z,6.25
2022-10-01T08:34:12.695Z,4.15
2022-10-01T08:36:39.239Z,5.50
2022-10-01T08:39:05.900Z,6.50
2022-10-01T08:41:51.236Z,4.93
2022-10-01T08:44:28.211Z,6.38
2022-10-01T08:46:59.463Z,4.57
2022-10-01T08:49:31.849Z,3.92
2022-10-01T08:52:16.058Z,6.90
2022-10-01T08:55:21.572Z,4.90
2022-10-01T08:57:59.748Z,4.38
2022-10-01T09:00:27.344Z,7.05
2022-10-01T09:02:54.148Z,3.90
2022-10-01T09:05:28.814Z,3.65
2022-10-01T09:08:25.003Z,3.90
2022-10-01T09:11:01.511Z,4.25
2022-10-01T09:13:57.720Z,3.63
2022-10-01T09:16:31.620Z,4.20
2022-10-01T09:19:17.003Z,3.25
2022-10-01T09:22:04.697Z,3.25
2022-10-01T09:24:47.327Z,3.60
2022-10-01T09:27:18.899Z,2.75
2022-10-01T09:29:48.018Z,3.35
2022-10-01T09:32:17.679Z,2.90
2022-10-01T09:34:45.118Z,3.33
2022-10-01T09:37:23.561Z,3.90
2022-10-01T09:40:15.916Z,4.15
2022-10-01T09:42:42.962Z,5.18
2022-10-01T09:45:14.341Z,3.45
2022-10-01T09:47:43.842Z,3.20
2022-10-01T09:50:16.304Z,2.50
2022-10-01T09:52:43.519Z,2.72
2022-10-01T09:55:22.406Z,2.80
2022-10-01T09:57:55.786Z,2.20
2022-10-01T10:00:25.087Z,4.45
2022-10-01T10:02:54.469Z,2.33
2022-10-01T10:05:23.594Z,3.00
2022-10-01T10:08:03.039Z,2.78
2022-10-01T10:10:35.548Z,2.90
2022-10-01T10:13:05.412Z,2.67
2022-10-01T10:15:33.347Z,2.85
2022-10-01T10:18:08.765Z,3.20
2022-10-01T10:20:44.272Z,2.83
2022-10-01T10:23:21.725Z,2.75
2022-10-01T10:25:55.224Z,3.95
2022-10-01T10:28:24.128Z,2.88
2022-10-01T10:30:53.256Z,4.40
2022-10-01T10:33:22.027Z,3.10
2022-10-01T10:36:03.928Z,3.17
2022-10-01T10:38:34.147Z,3.95
2022-10-01T10:41:01.932Z,4.35
2022-10-01T10:43:35.791Z,4.10
2022-10-01T10:46:03.083Z,4.63
2022-10-01T10:48:37.058Z,4.22
2022-10-01T10:51:06.060Z,3.90
2022-10-01T10:53:45.893Z,3.80
2022-10-01T10:56:24.921Z,3.95
2022-10-01T10:58:52.316Z,4.85
2022-10-01T11:01:26.671Z,6.35
2022-10-01T11:03:56.308Z,4.47
2022-10-01T11:06:23.681Z,9.13
2022-10-01T11:08:59.894Z,4.78
2022-10-01T11:11:33.751Z,4.72
2022-10-01T11:14:09.705Z,4.85
2022-10-01T11:16:52.660Z,5.82
2022-10-01T11:19:40.629Z,4.97
2022-10-01T11:22:35.053Z,6.22
2022-10-01T11:25:35.385Z,4.00
2022-10-01T11:28:06.407Z,5.00
2022-10-01T11:30:46.142Z,3.72
2022-10-01T11:33:47.924Z,5.32
2022-10-01T11:36:20.641Z,3.58
2022-10-01T11:38:51.728Z,3.75
2022-10-01T11:41:24.025Z,3.45
2022-10-01T11:43:56.696Z,5.82
2022-10-01T11:46:50.411Z,5.13
2022-10-01T11:49:54.383Z,3.83
2022-10-01T11:52:34.670Z,4.40
2022-10-01T11:55:44.902Z,4.88
2022-10-01T11:58:51.076Z,3.40
2022-10-01T12:01:35.613Z,3.30
2022-10-01T12:04:30.118Z,2.83
2022-10-01T12:07:05.339Z,3.03
2022-10-01T12:09:41.409Z,2.47
2022-10-01T12:12:13.413Z,3.17
2022-10-01T12:15:01.660Z,2.67
2022-10-01T12:17:53.040Z,4.65
2022-10-01T12:20:26.642Z,3.00
2022-10-01T12:22:54.095Z,3.35
2022-10-01T12:25:29.233Z,3.78
2022-10-01T12:27:58.501Z,4.72
2022-10-01T12:30:29.516Z,4.57
2022-10-01T12:33:14.436Z,4.05
2022-10-01T12:35:57.599Z,2.50
2022-10-01T12:39:01.536Z,2.72
2022-10-01T12:41:28.719Z,2.70
2022-10-01T12:44:04.332Z,3.22
2022-10-01T12:46:38.202Z,2.45
2022-10-01T12:49:32.110Z,3.72
2022-10-01T12:52:38.624Z,3.17
2022-10-01T12:55:22.365Z,3.88
2022-10-01T12:57:54.907Z,3.53
2022-10-01T13:00:25.080Z,2.80
2022-10-01T13:03:12.626Z,2.55
2022-10-01T13:06:13.130Z,3.75
2022-10-01T13:08:42.573Z,3.15
2022-10-01T13:11:27.703Z,3.47
2022-10-01T13:13:55.927Z,9.52
2022-10-01T13:16:36.046Z,5.72
2022-10-01T13:19:10.961Z,3.50
2022-10-01T13:22:08.018Z,2.67
2022-10-01T13:24:50.489Z,2.60
2022-10-01T13:27:28.531Z,5.35
2022-10-01T13:30:02.436Z,4.05
2022-10-01T13:32:37.499Z,2.20
2022-10-01T13:35:55.131Z,3.55
2022-10-01T13:38:38.337Z,2.45
2022-10-01T13:41:08.170Z,2.30
2022-10-01T13:43:35.628Z,2.78
2022-10-01T13:46:07.739Z,3.22
2022-10-01T13:48:35.438Z,3.60
2022-10-01T13:51:10.881Z,3.22
2022-10-01T13:54:00.711Z,4.72
2022-10-01T13:56:35.266Z,4.47
2022-10-01T13:59:03.067Z,3.78
2022-10-01T14:01:42.537Z,1.80
2022-10-01T14:04:35.057Z,3.47
2022-10-01T14:07:11.662Z,4.97
2022-10-01T14:09:44.722Z,3.72
2022-10-01T14:12:41.888Z,3.00
2022-10-01T14:15:58.795Z,2.75
2022-10-01T14:18:30.429Z,2.40
2022-10-01T14:21:03.160Z,3.58
2022-10-01T14:23:42.320Z,4.25
2022-10-01T14:26:22.081Z,2.17
2022-10-01T14:29:33.248Z,2.42
2022-10-01T14:31:59.887Z,4.00
2022-10-01T14:34:52.529Z,4.78
2022-10-01T14:37:20.295Z,3.60
2022-10-01T14:39:47.258Z,1.50
2022-10-01T14:42:17.481Z,2.22
2022-10-01T14:44:47.580Z,2.72
2022-10-01T14:47:25.301Z,1.90
2022-10-01T14:49:52.252Z,1.30
2022-10-01T14:52:27.363Z,2.22
2022-10-01T14:54:57.012Z,1.40
2022-10-01T14:57:32.022Z,4.07
2022-10-01T15:00:00.687Z,2.85
2022-10-01T15:02:29.083Z,2.05
2022-10-01T15:04:57.093Z,2.47
2022-10-01T15:07:25.959Z,2.35
2022-10-01T15:09:52.575Z,5.65
2022-10-01T15:12:20.740Z,5.38
2022-10-01T15:14:47.683Z,2.35
2022-10-01T15:17:23.760Z,2.85
2022-10-01T15:19:52.330Z,3.55
2022-10-01T15:22:25.418Z,1.77
2022-10-01T15:24:53.429Z,1.70
2022-10-01T15:27:21.050Z,1.98
2022-10-01T15:29:55.995Z,1.65
2022-10-01T15:32:24.195Z,2.97
2022-10-01T15:34:53.985Z,3.17
2022-10-01T15:37:33.053Z,2.95
2022-10-01T15:40:00.905Z,2.50
2022-10-01T15:42:31.703Z,1.67
2022-10-01T15:45:09.330Z,1.95
2022-10-01T15:47:36.339Z,4.13
2022-10-01T15:50:11.472Z,4.75
2022-10-01T15:53:00.147Z,3.17
2022-10-01T15:55:26.741Z,4.93
2022-10-01T15:58:11.842Z,4.22
2022-10-01T16:00:47.889Z,7.40
2022-10-01T16:03:36.513Z,2.20
2022-10-01T16:06:04.819Z,2.63
2022-10-01T16:08:34.754Z,1.90
2022-10-01T16:11:16.157Z,4.38
2022-10-01T16:13:49.226Z,4.25
2022-10-01T16:16:21.821Z,7.10
2022-10-01T16:18:54.244Z,7.65
2022-10-01T16:21:21.915Z,3.47
2022-10-01T16:23:50.518Z,5.85
2022-10-01T16:26:40.489Z,3.10
2022-10-01T16:29:22.125Z,4.47
2022-10-01T16:31:48.798Z,3.17
2022-10-01T16:34:19.561Z,2.70
2022-10-01T16:36:46.664Z,2.55
2022-10-01T16:39:15.320Z,4.82
2022-10-01T16:41:43.581Z,2.85
2022-10-01T16:44:13.171Z,5.95
2022-10-01T16:46:40.807Z,5.50
2022-10-01T16:49:15.460Z,3.55
2022-10-01T16:51:42.663Z,3.30
2022-10-01T16:54:19.992Z,3.35
2022-10-01T16:56:46.540Z,2.72
2022-10-01T16:59:13.337Z,3.17
2022-10-01T17:01:40.093Z,3.40
2022-10-01T17:04:11.102Z,2.95
2022-10-01T17:06:37.694Z,3.42
2022-10-01T17:09:04.325Z,7.43
2022-10-01T17:11:31.295Z,5.07
2022-10-01T17:13:57.894Z,4.53
2022-10-01T17:16:24.866Z,4.47
2022-10-01T17:18:51.694Z,3.90
2022-10-01T17:21:18.426Z,5.55
2022-10-01T17:23:44.999Z,3.78
2022-10-01T17:26:11.631Z,3.92
2022-10-01T17:28:38.397Z,2.20
2022-10-01T17:31:07.364Z,2.35
2022-10-01T17:33:34.512Z,3.33
2022-10-01T17:36:06.871Z,6.50
2022-10-01T17:38:33.709Z,2.10
2022-10-01T17:41:00.879Z,2.13
2022-10-01T17:43:27.410Z,2.53
2022-10-01T17:45:58.839Z,4.80
2022-10-01T17:48:28.691Z,4.13
2022-10-01T17:50:59.856Z,3.22
2022-10-01T17:53:30.809Z,3.67
2022-10-01T17:56:25.455Z,4.28
2022-10-01T17:58:53.335Z,8.90
2022-10-01T18:01:22.225Z,7.15
2022-10-01T18:03:54.528Z,6.15
2022-10-01T18:06:21.752Z,5.18
2022-10-01T18:08:55.641Z,5.18
2022-10-01T18:11:24.899Z,3.72
2022-10-01T18:13:52.275Z,5.07
2022-10-01T18:16:19.659Z,3.72
2022-10-01T18:21:33.415Z,1.92
2022-10-01T18:24:04.238Z,1.38
2022-10-01T18:26:34.436Z,2.17
2022-10-01T18:29:01.752Z,1.23
2022-10-01T18:31:37.429Z,1.10
2022-10-01T18:34:27.297Z,2.50
2022-10-01T18:37:15.348Z,1.33
2022-10-01T18:40:13.300Z,1.58
2022-10-01T18:43:07.562Z,1.83
2022-10-01T18:46:05.010Z,1.73
2022-10-01T18:48:36.270Z,4.78
2022-10-01T18:51:05.391Z,3.65
2022-10-01T18:53:32.067Z,2.80
2022-10-01T18:55:58.704Z,2.55
2022-10-01T18:58:33.443Z,1.38
2022-10-01T19:01:18.268Z,2.28
2022-10-01T19:04:03.071Z,5.25
2022-10-01T19:06:41.352Z,2.78
2022-10-01T19:09:21.182Z,1.90
2022-10-01T19:11:50.533Z,4.00
2022-10-01T19:14:23.151Z,5.15
2022-10-01T19:17:05.050Z,2.05
2022-10-01T19:19:53.060Z,3.30
2022-10-01T19:22:28.825Z,6.82
2022-10-01T19:25:11.533Z,2.70
2022-10-01T19:27:49.104Z,1.90
2022-10-01T19:30:17.815Z,4.63
2022-10-01T19:32:58.506Z,1.75
2022-10-01T19:35:32.082Z,1.65
2022-10-01T19:38:07.090Z,2.97
2022-10-01T19:40:53.586Z,2.10
2022-10-01T19:43:25.380Z,3.88
2022-10-01T19:45:56.867Z,2.47
2022-10-01T19:48:41.946Z,2.28
2022-10-01T19:51:12.638Z,2.67
2022-10-01T19:53:43.800Z,3.30
2022-10-01T19:56:16.761Z,3.40
2022-10-01T19:58:44.972Z,3.08
2022-10-01T20:01:16.781Z,2.30
2022-10-01T20:03:53.291Z,1.33
2022-10-01T20:06:39.781Z,1.10
2022-10-01T20:09:09.300Z,1.05
2022-10-01T20:11:36.441Z,4.78
2022-10-01T20:15:09.393Z,1.25
2022-10-01T20:18:13.518Z,1.45
2022-10-01T20:20:45.257Z,2.65
2022-10-01T20:23:30.237Z,2.45
2022-10-01T20:26:12.221Z,1.77
2022-10-01T20:29:03.589Z,1.85
2022-10-01T20:31:36.472Z,2.65
2022-10-01T20:34:21.977Z,1.75
2022-10-01T20:37:08.307Z,2.85
2022-10-01T20:39:49.491Z,2.05
2022-10-01T20:42:21.149Z,1.67
2022-10-01T20:44:47.896Z,5.32
2022-10-01T20:47:44.420Z,1.77
2022-10-01T20:50:15.466Z,2.00
2022-10-01T20:52:56.120Z,2.70
2022-10-01T20:55:29.331Z,4.90
2022-10-01T20:58:00.170Z,3.30
2022-10-01T21:00:27.926Z,2.67
2022-10-01T21:03:18.584Z,1.42
2022-10-01T21:05:57.894Z,2.30
2022-10-01T21:08:27.578Z,1.45
2022-10-01T21:10:55.946Z,3.13
2022-10-01T21:13:31.250Z,4.00
2022-10-01T21:16:18.362Z,4.18
2022-10-01T21:18:44.953Z,1.35
2022-10-01T21:21:45.267Z,3.92
2022-10-01T21:24:11.910Z,2.20
2022-10-01T21:26:38.613Z,1.48
2022-10-01T21:29:34.501Z,3.22
2022-10-01T21:32:06.530Z,1.67
2022-10-01T21:34:38.804Z,4.03
2022-10-01T21:37:12.231Z,3.42
2022-10-01T21:39:59.554Z,4.50
2022-10-01T21:42:46.537Z,2.88
2022-10-01T21:45:18.808Z,4.45
2022-10-01T21:48:03.630Z,3.38
2022-10-01T21:51:00.246Z,4.13
2022-10-01T21:53:43.135Z,5.93
2022-10-01T21:56:30.341Z,3.33
2022-10-01T21:59:08.825Z,3.67
2022-10-01T22:01:54.785Z,4.15
2022-10-01T22:04:33.900Z,2.55
2022-10-01T22:07:28.271Z,7.07
2022-10-01T22:10:14.311Z,3.70
2022-10-01T22:12:42.767Z,4.47
2022-10-01T22:15:24.227Z,6.05
2022-10-01T22:17:53.911Z,6.82
2022-10-01T22:20:22.653Z,6.60
2022-10-01T22:22:50.868Z,1.50
2022-10-01T22:25:18.356Z,3.75
2022-10-01T22:28:04.188Z,3.05
2022-10-01T22:30:34.595Z,4.07
2022-10-01T22:33:12.511Z,4.20
2022-10-01T22:36:23.901Z,4.47
2022-10-01T22:38:55.563Z,5.00
2022-10-01T22:41:35.153Z,4.25
2022-10-01T22:44:22.713Z,6.85
2022-10-01T22:47:10.831Z,4.03
2022-10-01T22:49:53.034Z,4.03
2022-10-01T22:52:49.981Z,10.82
2022-10-01T22:55:31.749Z,11.35
2022-10-01T22:58:20.179Z,6.32
2022-10-01T23:01:11.469Z,4.72
2022-10-01T23:04:10.610Z,5.40
2022-10-01T23:07:14.474Z,2.95
2022-10-01T23:10:01.214Z,7.63
2022-10-01T23:13:05.524Z,3.47
2022-10-01T23:19:00.192Z,5.25
2022-10-01T23:21:45.569Z,5.75
2022-10-01T23:24:19.391Z,5.57
2022-10-01T23:27:20.029Z,5.85
2022-10-01T23:29:57.911Z,3.28
2022-10-01T23:32:33.320Z,4.35
2022-10-01T23:35:01.503Z,5.90
2022-10-01T23:37:59.984Z,12.07
2022-10-01T23:40:31.270Z,4.68
2022-10-01T23:43:06.751Z,6.82
2022-10-01T23:45:49.838Z,5.32
2022-10-01T23:48:26.447Z,4.60
2022-10-01T23:51:17.073Z,2.55
2022-10-01T23:54:14.946Z,3.97
2022-10-01T23:56:53.528Z,7.30
2022-10-01T23:59:49.410Z,5.00
